sensor_id;sensor_type;location;lat;lon;timestamp;pressure;altitude;pressure_sealevel;temperature;humidity
63883;BME280;50047;50.596;30.466;2022-08-05T00:00:17;99336.95;;;26.21;58.83
63883;BME280;50047;50.596;30.466;2022-08-05T00:02:46;99338.85;;;26.16;58.18
63883;BME280;50047;50.596;30.466;2022-08-05T00:05:19;99338.25;;;26.07;58.07
63883;BME280;50047;50.596;30.466;2022-08-05T00:08:06;99334.07;;;25.75;58.61
63883;BME280;50047;50.596;30.466;2022-08-05T00:10:56;99328.05;;;25.56;59.13
63883;BME280;50047;50.596;30.466;2022-08-05T00:13:31;99320.22;;;25.87;59.29
63883;BME280;50047;50.596;30.466;2022-08-05T00:16:10;99320.64;;;26.08;58.29
63883;BME280;50047;50.596;30.466;2022-08-05T00:18:43;99321.50;;;26.10;57.96
63883;BME280;50047;50.596;30.466;2022-08-05T00:21:12;99313.83;;;25.88;58.16
63883;BME280;50047;50.596;30.466;2022-08-05T00:23:42;99309.77;;;25.57;58.51
63883;BME280;50047;50.596;30.466;2022-08-05T00:26:19;99308.83;;;25.27;59.57
63883;BME280;50047;50.596;30.466;2022-08-05T00:28:48;99307.77;;;25.65;59.38
63883;BME280;50047;50.596;30.466;2022-08-05T00:31:15;99303.38;;;25.87;59.01
63883;BME280;50047;50.596;30.466;2022-08-05T00:34:03;99303.14;;;25.84;58.61
63883;BME280;50047;50.596;30.466;2022-08-05T00:36:51;99306.91;;;25.60;58.77
63883;BME280;50047;50.596;30.466;2022-08-05T00:39:39;99311.39;;;25.21;59.34
63883;BME280;50047;50.596;30.466;2022-08-05T00:42:32;99302.46;;;25.03;60.03
63883;BME280;50047;50.596;30.466;2022-08-05T00:45:00;99296.74;;;25.44;59.95
63883;BME280;50047;50.596;30.466;2022-08-05T00:47:28;99292.02;;;25.79;58.80
63883;BME280;50047;50.596;30.466;2022-08-05T00:50:16;99295.64;;;25.62;58.55
63883;BME280;50047;50.596;30.466;2022-08-05T00:52:43;99294.06;;;25.32;59.01
63883;BME280;50047;50.596;30.466;2022-08-05T00:55:12;99288.58;;;24.99;59.56
63883;BME280;50047;50.596;30.466;2022-08-05T00:57:40;99289.98;;;25.17;60.24
63883;BME280;50047;50.596;30.466;2022-08-05T01:00:26;99292.56;;;25.57;59.18
63883;BME280;50047;50.596;30.466;2022-08-05T01:02:54;99289.15;;;25.65;58.63
63883;BME280;50047;50.596;30.466;2022-08-05T01:05:23;99295.26;;;25.50;58.31
63883;BME280;50047;50.596;30.466;2022-08-05T01:07:54;99298.56;;;25.26;58.70
63883;BME280;50047;50.596;30.466;2022-08-05T01:10:59;99297.64;;;24.94;59.44
63883;BME280;50047;50.596;30.466;2022-08-05T01:16:28;99295.21;;;25.36;59.15
63883;BME280;50047;50.596;30.466;2022-08-05T01:22:13;99285.58;;;25.15;58.98
63883;BME280;50047;50.596;30.466;2022-08-05T01:30:21;99293.36;;;25.34;59.90
63883;BME280;50047;50.596;30.466;2022-08-05T01:33:04;99296.38;;;25.28;59.37
63883;BME280;50047;50.596;30.466;2022-08-05T01:35:38;99291.83;;;25.05;59.63
63883;BME280;50047;50.596;30.466;2022-08-05T01:38:20;99290.86;;;24.82;59.70
63883;BME280;50047;50.596;30.466;2022-08-05T01:40:57;99286.73;;;24.54;60.72
63883;BME280;50047;50.596;30.466;2022-08-05T01:43:27;99283.61;;;24.89;60.68
63883;BME280;50047;50.596;30.466;2022-08-05T01:45:56;99279.77;;;25.16;60.00
63883;BME280;50047;50.596;30.466;2022-08-05T01:48:35;99283.52;;;25.21;59.76
63883;BME280;50047;50.596;30.466;2022-08-05T01:51:03;99280.77;;;25.06;59.54
63883;BME280;50047;50.596;30.466;2022-08-05T01:53:39;99278.01;;;24.95;59.53
63883;BME280;50047;50.596;30.466;2022-08-05T01:56:34;99284.70;;;24.67;60.51
63883;BME280;50047;50.596;30.466;2022-08-05T01:59:25;99283.76;;;25.25;59.97
63883;BME280;50047;50.596;30.466;2022-08-05T02:01:57;99286.62;;;25.47;58.75
63883;BME280;50047;50.596;30.466;2022-08-05T02:04:27;99295.77;;;25.31;58.77
63883;BME280;50047;50.596;30.466;2022-08-05T02:06:57;99296.88;;;25.18;58.73
63883;BME280;50047;50.596;30.466;2022-08-05T02:09:25;99288.19;;;24.79;59.39
63883;BME280;50047;50.596;30.466;2022-08-05T02:14:51;99285.41;;;25.05;59.03
63883;BME280;50047;50.596;30.466;2022-08-05T02:17:44;99291.27;;;24.92;59.01
63883;BME280;50047;50.596;30.466;2022-08-05T02:20:41;99290.09;;;24.61;59.47
63883;BME280;50047;50.596;30.466;2022-08-05T02:23:13;99296.17;;;24.29;60.48
63883;BME280;50047;50.596;30.466;2022-08-05T02:25:43;99301.17;;;24.71;60.38
63883;BME280;50047;50.596;30.466;2022-08-05T02:28:22;99300.68;;;25.17;59.15
63883;BME280;50047;50.596;30.466;2022-08-05T02:31:07;99300.34;;;24.93;59.26
63883;BME280;50047;50.596;30.466;2022-08-05T02:33:45;99300.94;;;24.69;59.44
63883;BME280;50047;50.596;30.466;2022-08-05T02:36:24;99304.29;;;24.37;60.11
63883;BME280;50047;50.596;30.466;2022-08-05T02:38:54;99302.32;;;24.60;60.24
63883;BME280;50047;50.596;30.466;2022-08-05T02:41:25;99302.89;;;24.86;59.54
63883;BME280;50047;50.596;30.466;2022-08-05T02:44:09;99298.55;;;24.85;59.27
63883;BME280;50047;50.596;30.466;2022-08-05T02:46:41;99305.44;;;24.68;59.31
63883;BME280;50047;50.596;30.466;2022-08-05T02:49:28;99302.33;;;24.37;60.18
63883;BME280;50047;50.596;30.466;2022-08-05T02:52:09;99302.52;;;24.69;60.23
63883;BME280;50047;50.596;30.466;2022-08-05T02:54:52;99303.65;;;24.94;59.40
63883;BME280;50047;50.596;30.466;2022-08-05T02:57:21;99290.46;;;24.90;59.33
63883;BME280;50047;50.596;30.466;2022-08-05T03:00:12;99293.16;;;24.76;59.24
63883;BME280;50047;50.596;30.466;2022-08-05T03:02:42;99290.77;;;24.52;59.78
63883;BME280;50047;50.596;30.466;2022-08-05T03:05:11;99295.86;;;24.80;60.05
63883;BME280;50047;50.596;30.466;2022-08-05T03:07:40;99302.52;;;25.30;58.98
63883;BME280;50047;50.596;30.466;2022-08-05T03:10:29;99301.02;;;25.22;58.61
63883;BME280;50047;50.596;30.466;2022-08-05T03:12:57;99296.95;;;24.91;58.82
63883;BME280;50047;50.596;30.466;2022-08-05T03:15:22;99302.30;;;24.74;58.97
63883;BME280;50047;50.596;30.466;2022-08-05T03:17:53;99309.66;;;24.45;59.74
63883;BME280;50047;50.596;30.466;2022-08-05T03:20:25;99313.11;;;24.79;59.97
63883;BME280;50047;50.596;30.466;2022-08-05T03:22:53;99309.39;;;25.13;59.08
63883;BME280;50047;50.596;30.466;2022-08-05T03:25:24;99306.33;;;25.17;58.59
63883;BME280;50047;50.596;30.466;2022-08-05T03:28:13;99303.17;;;25.03;58.64
63883;BME280;50047;50.596;30.466;2022-08-05T03:30:46;99304.58;;;24.81;58.94
63883;BME280;50047;50.596;30.466;2022-08-05T03:33:15;99310.83;;;24.53;59.46
63883;BME280;50047;50.596;30.466;2022-08-05T03:35:45;99311.59;;;24.95;59.78
63883;BME280;50047;50.596;30.466;2022-08-05T03:38:13;99312.27;;;25.38;58.96
63883;BME280;50047;50.596;30.466;2022-08-05T03:40:42;99307.75;;;25.34;58.56
63883;BME280;50047;50.596;30.466;2022-08-05T03:43:15;99311.84;;;25.25;58.68
63883;BME280;50047;50.596;30.466;2022-08-05T03:46:03;99300.59;;;24.87;60.16
63883;BME280;50047;50.596;30.466;2022-08-05T03:48:34;99300.74;;;24.59;60.38
63883;BME280;50047;50.596;30.466;2022-08-05T03:57:04;99309.47;;;25.30;59.19
63883;BME280;50047;50.596;30.466;2022-08-05T03:59:52;99301.65;;;25.11;59.18
63883;BME280;50047;50.596;30.466;2022-08-05T04:02:27;99298.17;;;24.81;59.80
63883;BME280;50047;50.596;30.466;2022-08-05T04:05:07;99301.14;;;24.59;59.90
63883;BME280;50047;50.596;30.466;2022-08-05T04:07:38;99303.90;;;24.99;60.24
63883;BME280;50047;50.596;30.466;2022-08-05T04:10:25;99309.23;;;25.30;59.71
63883;BME280;50047;50.596;30.466;2022-08-05T04:12:58;99311.48;;;25.35;59.29
63883;BME280;50047;50.596;30.466;2022-08-05T04:15:29;99309.88;;;25.18;59.19
63883;BME280;50047;50.596;30.466;2022-08-05T04:18:04;99306.56;;;24.95;59.61
63883;BME280;50047;50.596;30.466;2022-08-05T04:20:35;99305.39;;;25.06;60.16
63883;BME280;50047;50.596;30.466;2022-08-05T04:23:02;99310.09;;;25.34;59.69
63883;BME280;50047;50.596;30.466;2022-08-05T04:25:29;99307.17;;;25.42;59.32
63883;BME280;50047;50.596;30.466;2022-08-05T04:28:18;99307.41;;;25.33;58.96
63883;BME280;50047;50.596;30.466;2022-08-05T04:30:56;99312.64;;;24.97;59.81
63883;BME280;50047;50.596;30.466;2022-08-05T04:33:28;99315.23;;;25.22;59.70
63883;BME280;50047;50.596;30.466;2022-08-05T04:36:15;99312.30;;;25.31;59.76
63883;BME280;50047;50.596;30.466;2022-08-05T04:39:03;99308.66;;;25.31;59.10
63883;BME280;50047;50.596;30.466;2022-08-05T04:41:31;99306.97;;;25.04;59.56
63883;BME280;50047;50.596;30.466;2022-08-05T04:44:04;99305.84;;;24.58;60.82
63883;BME280;50047;50.596;30.466;2022-08-05T04:46:38;99305.70;;;25.11;60.46
63883;BME280;50047;50.596;30.466;2022-08-05T04:49:06;99307.83;;;25.55;59.59
63883;BME280;50047;50.596;30.466;2022-08-05T04:51:42;99300.53;;;25.63;58.73
63883;BME280;50047;50.596;30.466;2022-08-05T04:54:09;99300.64;;;25.50;58.63
63883;BME280;50047;50.596;30.466;2022-08-05T04:56:38;99298.96;;;25.28;58.93
63883;BME280;50047;50.596;30.466;2022-08-05T04:59:06;99302.73;;;25.19;59.17
63883;BME280;50047;50.596;30.466;2022-08-05T05:01:53;99306.52;;;25.70;59.01
63883;BME280;50047;50.596;30.466;2022-08-05T05:04:40;99307.42;;;25.91;58.48
63883;BME280;50047;50.596;30.466;2022-08-05T05:07:15;99307.27;;;25.96;58.33
63883;BME280;50047;50.596;30.466;2022-08-05T05:09:44;99310.64;;;25.79;58.04
63883;BME280;50047;50.596;30.466;2022-08-05T05:12:11;99312.41;;;25.45;58.83
63883;BME280;50047;50.596;30.466;2022-08-05T05:14:40;99320.37;;;25.10;59.77
63883;BME280;50047;50.596;30.466;2022-08-05T05:17:17;99320.64;;;25.54;59.61
63883;BME280;50047;50.596;30.466;2022-08-05T05:19:53;99319.53;;;25.83;59.10
63883;BME280;50047;50.596;30.466;2022-08-05T05:22:23;99312.67;;;25.72;58.50
63883;BME280;50047;50.596;30.466;2022-08-05T05:24:53;99321.17;;;25.58;58.65
63883;BME280;50047;50.596;30.466;2022-08-05T05:27:29;99319.11;;;25.28;59.09
63883;BME280;50047;50.596;30.466;2022-08-05T05:30:16;99318.48;;;25.14;59.77
63883;BME280;50047;50.596;30.466;2022-08-05T05:32:56;99320.16;;;25.68;59.29
63883;BME280;50047;50.596;30.466;2022-08-05T05:35:30;99322.51;;;25.75;59.01
63883;BME280;50047;50.596;30.466;2022-08-05T05:38:05;99322.27;;;25.68;58.79
63883;BME280;50047;50.596;30.466;2022-08-05T05:40:35;99325.27;;;25.49;59.03
63883;BME280;50047;50.596;30.466;2022-08-05T05:43:03;99321.48;;;25.17;59.82
63883;BME280;50047;50.596;30.466;2022-08-05T05:45:34;99328.22;;;25.40;60.07
63883;BME280;50047;50.596;30.466;2022-08-05T05:48:01;99331.95;;;25.42;59.48
63883;BME280;50047;50.596;30.466;2022-08-05T05:50:34;99331.73;;;25.28;59.81
63883;BME280;50047;50.596;30.466;2022-08-05T05:53:10;99335.38;;;25.19;59.73
63883;BME280;50047;50.596;30.466;2022-08-05T05:55:49;99337.32;;;24.98;60.14
63883;BME280;50047;50.596;30.466;2022-08-05T05:58:26;99337.56;;;25.23;60.40
63883;BME280;50047;50.596;30.466;2022-08-05T06:01:01;99338.36;;;25.48;59.84
63883;BME280;50047;50.596;30.466;2022-08-05T06:03:41;99332.13;;;25.22;60.33
63883;BME280;50047;50.596;30.466;2022-08-05T06:06:28;99331.98;;;25.28;59.89
63883;BME280;50047;50.596;30.466;2022-08-05T06:08:57;99342.38;;;24.85;60.77
63883;BME280;50047;50.596;30.466;2022-08-05T06:11:25;99337.16;;;24.72;61.63
63883;BME280;50047;50.596;30.466;2022-08-05T06:13:55;99339.03;;;25.20;60.96
63883;BME280;50047;50.596;30.466;2022-08-05T06:16:23;99340.73;;;25.13;60.87
63883;BME280;50047;50.596;30.466;2022-08-05T06:18:58;99346.55;;;25.16;60.52
63883;BME280;50047;50.596;30.466;2022-08-05T06:21:28;99335.65;;;24.93;61.07
63883;BME280;50047;50.596;30.466;2022-08-05T06:24:05;99334.52;;;25.41;60.66
63883;BME280;50047;50.596;30.466;2022-08-05T06:26:41;99342.80;;;25.76;59.12
63883;BME280;50047;50.596;30.466;2022-08-05T06:29:21;99342.08;;;25.83;58.64
63883;BME280;50047;50.596;30.466;2022-08-05T06:32:10;99332.86;;;25.48;59.39
63883;BME280;50047;50.596;30.466;2022-08-05T06:34:55;99341.36;;;25.29;60.23
63883;BME280;50047;50.596;30.466;2022-08-05T06:37:26;99338.10;;;25.93;59.63
63883;BME280;50047;50.596;30.466;2022-08-05T06:40:14;99332.91;;;26.43;58.35
63883;BME280;50047;50.596;30.466;2022-08-05T06:42:50;99340.54;;;26.71;57.05
63883;BME280;50047;50.596;30.466;2022-08-05T06:45:19;99334.88;;;26.89;56.63
63883;BME280;50047;50.596;30.466;2022-08-05T06:48:06;99339.25;;;26.72;56.66
63883;BME280;50047;50.596;30.466;2022-08-05T06:50:54;99338.55;;;26.83;57.17
63883;BME280;50047;50.596;30.466;2022-08-05T06:53:21;99343.64;;;27.11;56.49
63883;BME280;50047;50.596;30.466;2022-08-05T06:55:57;99342.26;;;27.15;55.79
63883;BME280;50047;50.596;30.466;2022-08-05T06:58:25;99346.59;;;27.07;55.56
63883;BME280;50047;50.596;30.466;2022-08-05T07:01:04;99356.98;;;26.90;55.95
63883;BME280;50047;50.596;30.466;2022-08-05T07:03:32;99359.61;;;26.69;56.49
63883;BME280;50047;50.596;30.466;2022-08-05T07:06:01;99357.38;;;27.17;57.01
63883;BME280;50047;50.596;30.466;2022-08-05T07:08:43;99354.09;;;27.91;54.55
63883;BME280;50047;50.596;30.466;2022-08-05T07:11:18;99354.86;;;28.16;54.17
63883;BME280;50047;50.596;30.466;2022-08-05T07:13:51;99349.45;;;28.31;53.77
63883;BME280;50047;50.596;30.466;2022-08-05T07:16:47;99354.29;;;28.58;52.98
63883;BME280;50047;50.596;30.466;2022-08-05T07:19:38;99360.77;;;28.45;52.78
63883;BME280;50047;50.596;30.466;2022-08-05T07:22:25;99364.46;;;28.20;53.83
63883;BME280;50047;50.596;30.466;2022-08-05T07:24:57;99358.65;;;28.64;53.80
63883;BME280;50047;50.596;30.466;2022-08-05T07:27:25;99360.56;;;28.95;53.27
63883;BME280;50047;50.596;30.466;2022-08-05T07:30:12;99364.89;;;29.11;52.01
63883;BME280;50047;50.596;30.466;2022-08-05T07:32:56;99368.34;;;28.82;52.02
63883;BME280;50047;50.596;30.466;2022-08-05T07:35:23;99370.04;;;28.59;51.93
63883;BME280;50047;50.596;30.466;2022-08-05T07:38:10;99370.05;;;28.28;52.46
63883;BME280;50047;50.596;30.466;2022-08-05T07:40:58;99366.20;;;27.89;53.49
63883;BME280;50047;50.596;30.466;2022-08-05T07:43:42;99366.13;;;28.32;53.49
63883;BME280;50047;50.596;30.466;2022-08-05T07:46:10;99363.19;;;28.80;52.32
63883;BME280;50047;50.596;30.466;2022-08-05T07:48:55;99369.26;;;28.89;51.73
63883;BME280;50047;50.596;30.466;2022-08-05T07:51:32;99367.14;;;28.63;51.89
63883;BME280;50047;50.596;30.466;2022-08-05T07:54:06;99372.74;;;28.32;52.18
63883;BME280;50047;50.596;30.466;2022-08-05T07:56:37;99375.13;;;27.94;53.15
63883;BME280;50047;50.596;30.466;2022-08-05T07:59:24;99377.95;;;27.87;53.83
63883;BME280;50047;50.596;30.466;2022-08-05T08:02:10;99375.11;;;28.36;53.04
63883;BME280;50047;50.596;30.466;2022-08-05T08:04:45;99381.10;;;28.69;52.45
63883;BME280;50047;50.596;30.466;2022-08-05T08:07:18;99385.08;;;28.64;52.34
63883;BME280;50047;50.596;30.466;2022-08-05T08:09:50;99383.30;;;28.30;52.75
63883;BME280;50047;50.596;30.466;2022-08-05T08:12:21;99385.61;;;28.08;53.04
63883;BME280;50047;50.596;30.466;2022-08-05T08:15:07;99386.52;;;28.04;52.82
63883;BME280;50047;50.596;30.466;2022-08-05T08:17:45;99386.23;;;27.98;53.06
63883;BME280;50047;50.596;30.466;2022-08-05T08:20:23;99383.02;;;28.49;53.68
63883;BME280;50047;50.596;30.466;2022-08-05T08:23:11;99383.58;;;29.13;51.83
63883;BME280;50047;50.596;30.466;2022-08-05T08:25:58;99387.71;;;29.32;50.79
63883;BME280;50047;50.596;30.466;2022-08-05T08:28:31;99383.46;;;29.28;50.98
63883;BME280;50047;50.596;30.466;2022-08-05T08:31:15;99384.03;;;28.96;50.95
63883;BME280;50047;50.596;30.466;2022-08-05T08:33:44;99390.63;;;28.62;51.34
63883;BME280;50047;50.596;30.466;2022-08-05T08:36:17;99387.07;;;28.37;51.84
63883;BME280;50047;50.596;30.466;2022-08-05T08:39:05;99384.47;;;28.33;52.16
63883;BME280;50047;50.596;30.466;2022-08-05T08:41:43;99383.45;;;28.91;52.07
63883;BME280;50047;50.596;30.466;2022-08-05T08:44:29;99385.70;;;29.46;50.90
63883;BME280;50047;50.596;30.466;2022-08-05T08:47:18;99390.66;;;29.59;50.03
63883;BME280;50047;50.596;30.466;2022-08-05T08:50:10;99395.92;;;29.45;49.71
63883;BME280;50047;50.596;30.466;2022-08-05T08:53:05;99393.46;;;29.24;50.08
63883;BME280;50047;50.596;30.466;2022-08-05T08:55:39;99401.08;;;29.18;50.27
63883;BME280;50047;50.596;30.466;2022-08-05T08:58:26;99398.14;;;29.09;49.99
63883;BME280;50047;50.596;30.466;2022-08-05T09:01:10;99400.23;;;29.00;50.28
63883;BME280;50047;50.596;30.466;2022-08-05T09:03:48;99395.05;;;29.00;50.35
63883;BME280;50047;50.596;30.466;2022-08-05T09:06:24;99392.44;;;29.62;50.62
63883;BME280;50047;50.596;30.466;2022-08-05T09:08:57;99396.58;;;30.15;48.96
63883;BME280;50047;50.596;30.466;2022-08-05T09:11:26;99398.09;;;30.37;48.54
63883;BME280;50047;50.596;30.466;2022-08-05T09:14:13;99401.83;;;30.40;47.51
63883;BME280;50047;50.596;30.466;2022-08-05T09:17:03;99404.98;;;30.19;47.86
63883;BME280;50047;50.596;30.466;2022-08-05T09:19:36;99402.30;;;30.12;47.72
63883;BME280;50047;50.596;30.466;2022-08-05T09:22:23;99402.87;;;29.95;47.96
63883;BME280;50047;50.596;30.466;2022-08-05T09:25:00;99402.55;;;29.77;48.43
63883;BME280;50047;50.596;30.466;2022-08-05T09:27:48;99404.73;;;29.76;48.45
63883;BME280;50047;50.596;30.466;2022-08-05T09:30:33;99399.08;;;29.72;48.35
63883;BME280;50047;50.596;30.466;2022-08-05T09:33:03;99399.10;;;29.78;48.46
63883;BME280;50047;50.596;30.466;2022-08-05T09:35:30;99397.37;;;30.26;48.67
63883;BME280;50047;50.596;30.466;2022-08-05T09:37:58;99404.43;;;30.92;47.65
63883;BME280;50047;50.596;30.466;2022-08-05T09:40:43;99408.57;;;31.02;46.68
63883;BME280;50047;50.596;30.466;2022-08-05T09:43:27;99409.66;;;30.86;46.98
63883;BME280;50047;50.596;30.466;2022-08-05T09:46:27;99413.45;;;30.58;46.61
63883;BME280;50047;50.596;30.466;2022-08-05T09:48:56;99412.67;;;30.32;47.25
63883;BME280;50047;50.596;30.466;2022-08-05T09:51:36;99412.05;;;30.12;47.56
63883;BME280;50047;50.596;30.466;2022-08-05T09:54:08;99414.52;;;29.90;48.03
63883;BME280;50047;50.596;30.466;2022-08-05T09:56:39;99411.98;;;29.62;48.31
63883;BME280;50047;50.596;30.466;2022-08-05T09:59:22;99412.17;;;29.63;48.41
63883;BME280;50047;50.596;30.466;2022-08-05T10:01:53;99413.11;;;29.78;48.30
63883;BME280;50047;50.596;30.466;2022-08-05T10:04:34;99419.15;;;29.80;48.63
63883;BME280;50047;50.596;30.466;2022-08-05T10:07:05;99413.02;;;30.19;48.76
63883;BME280;50047;50.596;30.466;2022-08-05T10:09:55;99417.14;;;30.62;48.24
63883;BME280;50047;50.596;30.466;2022-08-05T10:12:50;99420.54;;;30.74;47.72
63883;BME280;50047;50.596;30.466;2022-08-05T10:15:33;99420.45;;;30.61;47.62
63883;BME280;50047;50.596;30.466;2022-08-05T10:18:16;99424.20;;;30.49;47.36
63883;BME280;50047;50.596;30.466;2022-08-05T10:20:52;99419.67;;;30.37;47.39
63883;BME280;50047;50.596;30.466;2022-08-05T10:23:21;99420.67;;;30.35;47.32
63883;BME280;50047;50.596;30.466;2022-08-05T10:26:09;99421.52;;;30.28;47.58
63883;BME280;50047;50.596;30.466;2022-08-05T10:28:42;99425.27;;;30.06;48.01
63883;BME280;50047;50.596;30.466;2022-08-05T10:31:15;99427.76;;;29.77;48.36
63883;BME280;50047;50.596;30.466;2022-08-05T10:34:04;99426.58;;;29.54;48.67
63883;BME280;50047;50.596;30.466;2022-08-05T10:36:35;99424.04;;;29.29;49.61
63883;BME280;50047;50.596;30.466;2022-08-05T10:39:11;99427.88;;;29.54;49.81
63883;BME280;50047;50.596;30.466;2022-08-05T10:42:12;99424.07;;;30.10;49.03
63883;BME280;50047;50.596;30.466;2022-08-05T10:44:58;99424.40;;;30.62;47.52
63883;BME280;50047;50.596;30.466;2022-08-05T10:47:33;99426.11;;;30.71;47.32
63883;BME280;50047;50.596;30.466;2022-08-05T10:50:07;99426.16;;;30.48;46.98
63883;BME280;50047;50.596;30.466;2022-08-05T10:52:59;99426.90;;;30.19;48.05
63883;BME280;50047;50.596;30.466;2022-08-05T10:55:27;99423.61;;;30.00;48.29
63883;BME280;50047;50.596;30.466;2022-08-05T10:58:16;99415.98;;;30.11;48.11
63883;BME280;50047;50.596;30.466;2022-08-05T11:00:46;99415.83;;;30.22;47.72
63883;BME280;50047;50.596;30.466;2022-08-05T11:03:21;99419.16;;;30.55;47.10
63883;BME280;50047;50.596;30.466;2022-08-05T11:09:13;99418.83;;;31.34;46.10
63883;BME280;50047;50.596;30.466;2022-08-05T11:11:47;99414.65;;;31.82;44.89
63883;BME280;50047;50.596;30.466;2022-08-05T11:14:23;99415.17;;;31.88;44.83
63883;BME280;50047;50.596;30.466;2022-08-05T11:20:45;99407.07;;;32.00;44.37
63883;BME280;50047;50.596;30.466;2022-08-05T11:29:02;99410.45;;;31.05;45.49
63883;BME280;50047;50.596;30.466;2022-08-05T11:31:41;99416.08;;;31.27;45.43
63883;BME280;50047;50.596;30.466;2022-08-05T11:34:37;99412.48;;;31.11;45.31
63883;BME280;50047;50.596;30.466;2022-08-05T11:37:05;99414.77;;;30.75;46.11
63883;BME280;50047;50.596;30.466;2022-08-05T11:39:52;99410.41;;;30.67;46.44
63883;BME280;50047;50.596;30.466;2022-08-05T11:42:26;99409.39;;;30.60;46.13
63883;BME280;50047;50.596;30.466;2022-08-05T11:45:03;99403.39;;;30.60;46.71
63883;BME280;50047;50.596;30.466;2022-08-05T11:47:40;99406.75;;;30.75;46.81
63883;BME280;50047;50.596;30.466;2022-08-05T11:50:16;99402.02;;;30.81;46.41
63883;BME280;50047;50.596;30.466;2022-08-05T11:52:44;99404.69;;;30.87;46.62
63883;BME280;50047;50.596;30.466;2022-08-05T11:55:16;99405.98;;;30.97;46.19
63883;BME280;50047;50.596;30.466;2022-08-05T11:57:46;99396.06;;;31.11;46.30
63883;BME280;50047;50.596;30.466;2022-08-05T12:00:33;99402.10;;;31.20;46.01
63883;BME280;50047;50.596;30.466;2022-08-05T12:03:18;99398.60;;;31.18;45.97
63883;BME280;50047;50.596;30.466;2022-08-05T12:06:00;99403.91;;;31.01;46.23
63883;BME280;50047;50.596;30.466;2022-08-05T12:08:32;99401.42;;;30.99;46.23
63883;BME280;50047;50.596;30.466;2022-08-05T12:11:02;99395.08;;;30.94;46.57
63883;BME280;50047;50.596;30.466;2022-08-05T12:13:32;99389.77;;;31.00;46.61
63883;BME280;50047;50.596;30.466;2022-08-05T12:16:19;99385.70;;;31.03;46.17
63883;BME280;50047;50.596;30.466;2022-08-05T12:18:53;99384.09;;;30.92;46.30
63883;BME280;50047;50.596;30.466;2022-08-05T12:24:02;99378.77;;;30.65;46.51
63883;BME280;50047;50.596;30.466;2022-08-05T12:26:41;99376.69;;;30.51;47.27
63883;BME280;50047;50.596;30.466;2022-08-05T12:29:24;99380.23;;;30.74;46.80
63883;BME280;50047;50.596;30.466;2022-08-05T12:31:54;99378.33;;;31.12;45.88
63883;BME280;50047;50.596;30.466;2022-08-05T12:34:28;99372.84;;;31.39;45.68
63883;BME280;50047;50.596;30.466;2022-08-05T12:36:59;99371.34;;;31.63;45.02
63883;BME280;50047;50.596;30.466;2022-08-05T12:39:31;99368.38;;;31.67;45.13
63883;BME280;50047;50.596;30.466;2022-08-05T12:42:10;99365.73;;;31.55;45.32
63883;BME280;50047;50.596;30.466;2022-08-05T12:44:41;99372.52;;;31.22;46.21
63883;BME280;50047;50.596;30.466;2022-08-05T12:47:11;99367.02;;;31.15;46.20
63883;BME280;50047;50.596;30.466;2022-08-05T12:49:47;99368.03;;;31.22;45.76
63883;BME280;50047;50.596;30.466;2022-08-05T12:52:35;99365.89;;;31.29;45.86
63883;BME280;50047;50.596;30.466;2022-08-05T12:57:52;99367.73;;;31.24;45.86
63883;BME280;50047;50.596;30.466;2022-08-05T13:00:42;99366.15;;;31.23;45.71
63883;BME280;50047;50.596;30.466;2022-08-05T13:03:30;99365.39;;;31.36;45.45
63883;BME280;50047;50.596;30.466;2022-08-05T13:06:00;99364.42;;;31.51;45.37
63883;BME280;50047;50.596;30.466;2022-08-05T13:08:30;99356.53;;;31.75;45.08
63883;BME280;50047;50.596;30.466;2022-08-05T13:11:01;99359.77;;;31.94;44.60
63883;BME280;50047;50.596;30.466;2022-08-05T13:13:30;99353.11;;;32.16;44.40
63883;BME280;50047;50.596;30.466;2022-08-05T13:16:18;99350.95;;;32.35;43.99
63883;BME280;50047;50.596;30.466;2022-08-05T13:18:54;99347.89;;;32.39;44.17
63883;BME280;50047;50.596;30.466;2022-08-05T13:23:40;99343.80;;;32.03;44.75
63883;BME280;50047;50.596;30.466;2022-08-05T13:26:17;99341.07;;;32.52;43.93
63883;BME280;50047;50.596;30.466;2022-08-05T13:28:55;99339.31;;;32.66;43.08
63883;BME280;50047;50.596;30.466;2022-08-05T13:31:25;99336.56;;;32.87;42.78
63883;BME280;50047;50.596;30.466;2022-08-05T13:34:13;99337.71;;;33.03;42.43
63883;BME280;50047;50.596;30.466;2022-08-05T13:36:52;99336.37;;;33.01;42.16
63883;BME280;50047;50.596;30.466;2022-08-05T13:39:19;99338.69;;;33.13;42.33
63883;BME280;50047;50.596;30.466;2022-08-05T13:42:08;99336.24;;;33.17;41.85
63883;BME280;50047;50.596;30.466;2022-08-05T13:44:44;99332.50;;;33.17;41.86
63883;BME280;50047;50.596;30.466;2022-08-05T13:47:15;99335.98;;;33.09;41.55
63883;BME280;50047;50.596;30.466;2022-08-05T13:50:03;99335.66;;;33.04;41.77
63883;BME280;50047;50.596;30.466;2022-08-05T13:52:38;99334.77;;;32.94;41.92
63883;BME280;50047;50.596;30.466;2022-08-05T13:55:07;99339.67;;;32.57;42.25
63883;BME280;50047;50.596;30.466;2022-08-05T13:57:36;99340.14;;;32.41;42.84
63883;BME280;50047;50.596;30.466;2022-08-05T14:00:19;99332.09;;;32.59;42.47
63883;BME280;50047;50.596;30.466;2022-08-05T14:02:55;99331.21;;;32.78;42.33
63883;BME280;50047;50.596;30.466;2022-08-05T14:05:23;99329.75;;;32.84;42.14
63883;BME280;50047;50.596;30.466;2022-08-05T14:08:11;99330.59;;;32.62;42.44
63883;BME280;50047;50.596;30.466;2022-08-05T14:10:53;99333.55;;;32.50;42.18
63883;BME280;50047;50.596;30.466;2022-08-05T14:13:29;99332.17;;;32.45;42.72
63883;BME280;50047;50.596;30.466;2022-08-05T14:15:58;99331.67;;;32.37;43.01
63883;BME280;50047;50.596;30.466;2022-08-05T14:18:36;99325.92;;;32.28;43.11
63883;BME280;50047;50.596;30.466;2022-08-05T14:21:03;99331.86;;;32.19;43.28